sensor_id;sensor_type;location;lat;lon;timestamp;P1;durP1;ratioP1;P2;durP2;ratioP2
6249;SDS011;3158;52.148;11.568;2022-07-24T00:01:52;1.88;;;1.20;;
6249;SDS011;3158;52.148;11.568;2022-07-24T00:06:53;1.20;;;1.08;;
6249;SDS011;3158;52.148;11.568;2022-07-24T00:11:54;1.92;;;1.02;;
6249;SDS011;3158;52.148;11.568;2022-07-24T00:16:55;1.20;;;1.10;;
6249;SDS011;3158;52.148;11.568;2022-07-24T00:21:56;1.52;;;1.52;;
6249;SDS011;3158;52.148;11.568;2022-07-24T00:26:59;2.58;;;1.25;;
6249;SDS011;3158;52.148;11.568;2022-07-24T00:32:01;1.65;;;1.02;;
6249;SDS011;3158;52.148;11.568;2022-07-24T00:37:02;0.90;;;0.90;;
6249;SDS011;3158;52.148;11.568;2022-07-24T00:42:03;3.55;;;1.17;;
6249;SDS011;3158;52.148;11.568;2022-07-24T00:47:04;1.20;;;1.15;;
6249;SDS011;3158;52.148;11.568;2022-07-24T00:52:05;3.63;;;1.20;;
6249;SDS011;3158;52.148;11.568;2022-07-24T00:57:06;2.25;;;1.10;;
6249;SDS011;3158;52.148;11.568;2022-07-24T01:02:07;1.10;;;1.10;;
6249;SDS011;3158;52.148;11.568;2022-07-24T01:07:08;1.00;;;1.00;;
6249;SDS011;3158;52.148;11.568;2022-07-24T01:12:09;1.00;;;1.00;;
6249;SDS011;3158;52.148;11.568;2022-07-24T01:17:10;1.25;;;1.20;;
6249;SDS011;3158;52.148;11.568;2022-07-24T01:22:11;1.08;;;1.08;;
6249;SDS011;3158;52.148;11.568;2022-07-24T01:27:12;1.20;;;0.90;;
6249;SDS011;3158;52.148;11.568;2022-07-24T01:32:13;1.67;;;1.25;;
6249;SDS011;3158;52.148;11.568;2022-07-24T01:37:14;1.20;;;1.20;;
6249;SDS011;3158;52.148;11.568;2022-07-24T01:42:16;0.90;;;0.90;;
6249;SDS011;3158;52.148;11.568;2022-07-24T01:47:19;1.15;;;1.05;;
6249;SDS011;3158;52.148;11.568;2022-07-24T01:52:20;1.10;;;0.90;;
6249;SDS011;3158;52.148;11.568;2022-07-24T01:57:25;2.67;;;1.10;;
6249;SDS011;3158;52.148;11.568;2022-07-24T02:02:26;1.60;;;1.00;;
6249;SDS011;3158;52.148;11.568;2022-07-24T02:07:27;3.55;;;1.13;;
6249;SDS011;3158;52.148;11.568;2022-07-24T02:12:28;1.23;;;1.23;;
6249;SDS011;3158;52.148;11.568;2022-07-24T02:17:29;1.08;;;1.08;;
6249;SDS011;3158;52.148;11.568;2022-07-24T02:22:30;1.83;;;1.15;;
6249;SDS011;3158;52.148;11.568;2022-07-24T02:27:33;1.65;;;1.55;;
6249;SDS011;3158;52.148;11.568;2022-07-24T02:32:34;1.50;;;1.50;;
6249;SDS011;3158;52.148;11.568;2022-07-24T02:37:36;1.40;;;1.40;;
6249;SDS011;3158;52.148;11.568;2022-07-24T02:42:38;1.25;;;1.20;;
6249;SDS011;3158;52.148;11.568;2022-07-24T02:53:09;1.35;;;1.10;;
6249;SDS011;3158;52.148;11.568;2022-07-24T02:58:10;1.35;;;1.35;;
6249;SDS011;3158;52.148;11.568;2022-07-24T03:03:12;3.00;;;1.20;;
6249;SDS011;3158;52.148;11.568;2022-07-24T03:08:13;1.35;;;1.35;;
6249;SDS011;3158;52.148;11.568;2022-07-24T03:13:14;1.30;;;1.30;;
6249;SDS011;3158;52.148;11.568;2022-07-24T03:18:15;1.60;;;1.50;;
6249;SDS011;3158;52.148;11.568;2022-07-24T03:23:16;1.52;;;1.52;;
6249;SDS011;3158;52.148;11.568;2022-07-24T03:28:17;1.17;;;1.17;;
6249;SDS011;3158;52.148;11.568;2022-07-24T03:33:19;1.30;;;1.30;;
6249;SDS011;3158;52.148;11.568;2022-07-24T03:38:20;3.00;;;1.50;;
6249;SDS011;3158;52.148;11.568;2022-07-24T03:43:21;2.17;;;1.15;;
6249;SDS011;3158;52.148;11.568;2022-07-24T03:48:22;1.50;;;1.50;;
6249;SDS011;3158;52.148;11.568;2022-07-24T03:53:23;3.33;;;1.60;;
6249;SDS011;3158;52.148;11.568;2022-07-24T03:58:24;1.75;;;1.65;;
6249;SDS011;3158;52.148;11.568;2022-07-24T04:03:25;1.60;;;1.60;;
6249;SDS011;3158;52.148;11.568;2022-07-24T04:08:26;2.90;;;1.90;;
6249;SDS011;3158;52.148;11.568;2022-07-24T04:13:28;4.25;;;1.95;;
6249;SDS011;3158;52.148;11.568;2022-07-24T04:18:29;3.25;;;1.80;;
6249;SDS011;3158;52.148;11.568;2022-07-24T04:23:30;2.90;;;1.20;;
6249;SDS011;3158;52.148;11.568;2022-07-24T04:28:31;2.13;;;1.98;;
6249;SDS011;3158;52.148;11.568;2022-07-24T04:33:33;1.90;;;1.80;;
6249;SDS011;3158;52.148;11.568;2022-07-24T04:38:34;2.78;;;2.10;;
6249;SDS011;3158;52.148;11.568;2022-07-24T04:43:35;1.92;;;1.90;;
6249;SDS011;3158;52.148;11.568;2022-07-24T04:48:36;2.05;;;1.95;;
6249;SDS011;3158;52.148;11.568;2022-07-24T04:53:37;2.10;;;2.10;;
6249;SDS011;3158;52.148;11.568;2022-07-24T04:58:38;3.15;;;2.13;;
6249;SDS011;3158;52.148;11.568;2022-07-24T05:03:40;3.15;;;2.03;;
6249;SDS011;3158;52.148;11.568;2022-07-24T05:08:41;1.88;;;1.77;;
6249;SDS011;3158;52.148;11.568;2022-07-24T05:13:42;1.80;;;1.70;;
6249;SDS011;3158;52.148;11.568;2022-07-24T05:18:43;2.20;;;1.83;;
6249;SDS011;3158;52.148;11.568;2022-07-24T05:23:44;3.15;;;1.77;;
6249;SDS011;3158;52.148;11.568;2022-07-24T05:28:45;1.58;;;1.58;;
6249;SDS011;3158;52.148;11.568;2022-07-24T05:33:46;1.65;;;1.55;;
6249;SDS011;3158;52.148;11.568;2022-07-24T05:38:47;2.38;;;1.38;;
6249;SDS011;3158;52.148;11.568;2022-07-24T05:43:48;1.55;;;1.50;;
6249;SDS011;3158;52.148;11.568;2022-07-24T05:48:49;1.73;;;1.73;;
6249;SDS011;3158;52.148;11.568;2022-07-24T05:53:50;4.50;;;1.48;;
6249;SDS011;3158;52.148;11.568;2022-07-24T05:58:51;1.10;;;1.10;;
6249;SDS011;3158;52.148;11.568;2022-07-24T06:03:53;1.20;;;1.20;;
6249;SDS011;3158;52.148;11.568;2022-07-24T06:08:54;1.08;;;0.88;;
6249;SDS011;3158;52.148;11.568;2022-07-24T06:13:55;2.50;;;0.80;;
6249;SDS011;3158;52.148;11.568;2022-07-24T06:18:56;2.05;;;0.90;;
6249;SDS011;3158;52.148;11.568;2022-07-24T06:23:57;3.50;;;0.85;;
6249;SDS011;3158;52.148;11.568;2022-07-24T06:28:58;1.27;;;0.82;;
6249;SDS011;3158;52.148;11.568;2022-07-24T06:33:59;2.40;;;0.80;;
6249;SDS011;3158;52.148;11.568;2022-07-24T06:39:00;2.17;;;0.98;;
6249;SDS011;3158;52.148;11.568;2022-07-24T06:44:01;2.63;;;1.10;;
6249;SDS011;3158;52.148;11.568;2022-07-24T06:49:02;0.80;;;0.77;;
6249;SDS011;3158;52.148;11.568;2022-07-24T06:54:03;0.98;;;0.93;;
6249;SDS011;3158;52.148;11.568;2022-07-24T06:59:04;1.20;;;0.95;;
6249;SDS011;3158;52.148;11.568;2022-07-24T07:04:05;1.67;;;0.70;;
6249;SDS011;3158;52.148;11.568;2022-07-24T07:09:06;1.95;;;0.63;;
6249;SDS011;3158;52.148;11.568;2022-07-24T07:14:07;1.20;;;0.70;;
6249;SDS011;3158;52.148;11.568;2022-07-24T07:19:08;1.30;;;0.75;;
6249;SDS011;3158;52.148;11.568;2022-07-24T07:24:09;1.75;;;0.55;;
6249;SDS011;3158;52.148;11.568;2022-07-24T07:29:11;1.85;;;0.60;;
6249;SDS011;3158;52.148;11.568;2022-07-24T07:34:12;0.63;;;0.63;;
6249;SDS011;3158;52.148;11.568;2022-07-24T07:39:13;1.02;;;1.02;;
6249;SDS011;3158;52.148;11.568;2022-07-24T07:44:14;0.75;;;0.75;;
6249;SDS011;3158;52.148;11.568;2022-07-24T07:49:15;2.38;;;0.50;;
6249;SDS011;3158;52.148;11.568;2022-07-24T07:54:18;0.95;;;0.70;;
6249;SDS011;3158;52.148;11.568;2022-07-24T07:59:19;3.03;;;0.45;;
6249;SDS011;3158;52.148;11.568;2022-07-24T08:04:20;0.52;;;0.52;;
6249;SDS011;3158;52.148;11.568;2022-07-24T08:09:21;0.60;;;0.60;;
6249;SDS011;3158;52.148;11.568;2022-07-24T08:14:22;1.20;;;0.57;;
6249;SDS011;3158;52.148;11.568;2022-07-24T08:19:23;1.52;;;0.60;;
6249;SDS011;3158;52.148;11.568;2022-07-24T08:24:24;1.50;;;0.50;;
6249;SDS011;3158;52.148;11.568;2022-07-24T08:29:26;1.15;;;0.63;;
6249;SDS011;3158;52.148;11.568;2022-07-24T08:34:27;1.50;;;0.60;;
6249;SDS011;3158;52.148;11.568;2022-07-24T08:39:28;2.58;;;0.70;;
6249;SDS011;3158;52.148;11.568;2022-07-24T08:44:29;0.70;;;0.70;;
6249;SDS011;3158;52.148;11.568;2022-07-24T08:49:30;0.70;;;0.70;;
6249;SDS011;3158;52.148;11.568;2022-07-24T08:54:32;0.70;;;0.70;;
6249;SDS011;3158;52.148;11.568;2022-07-24T08:59:33;1.27;;;0.70;;
6249;SDS011;3158;52.148;11.568;2022-07-24T09:04:41;0.73;;;0.70;;
6249;SDS011;3158;52.148;11.568;2022-07-24T09:09:44;2.33;;;0.73;;
6249;SDS011;3158;52.148;11.568;2022-07-24T09:14:46;0.60;;;0.60;;
6249;SDS011;3158;52.148;11.568;2022-07-24T09:19:55;0.63;;;0.63;;
6249;SDS011;3158;52.148;11.568;2022-07-24T09:30:07;1.17;;;0.90;;
6249;SDS011;3158;52.148;11.568;2022-07-24T09:35:09;1.20;;;1.00;;
6249;SDS011;3158;52.148;11.568;2022-07-24T09:40:10;0.73;;;0.60;;
6249;SDS011;3158;52.148;11.568;2022-07-24T09:45:11;0.88;;;0.85;;
6249;SDS011;3158;52.148;11.568;2022-07-24T09:50:14;0.90;;;0.90;;
6249;SDS011;3158;52.148;11.568;2022-07-24T09:55:19;2.55;;;1.08;;
6249;SDS011;3158;52.148;11.568;2022-07-24T10:00:20;1.55;;;1.10;;
6249;SDS011;3158;52.148;11.568;2022-07-24T10:05:21;1.08;;;1.00;;
6249;SDS011;3158;52.148;11.568;2022-07-24T10:10:24;1.02;;;1.02;;
6249;SDS011;3158;52.148;11.568;2022-07-24T10:15:29;7.97;;;1.10;;
6249;SDS011;3158;52.148;11.568;2022-07-24T10:20:37;2.85;;;1.17;;
6249;SDS011;3158;52.148;11.568;2022-07-24T10:30:55;1.52;;;1.10;;
6249;SDS011;3158;52.148;11.568;2022-07-24T10:35:56;1.25;;;0.80;;
6249;SDS011;3158;52.148;11.568;2022-07-24T10:41:02;1.90;;;1.13;;
6249;SDS011;3158;52.148;11.568;2022-07-24T10:51:05;1.35;;;1.33;;
6249;SDS011;3158;52.148;11.568;2022-07-24T10:56:14;1.38;;;0.90;;
6249;SDS011;3158;52.148;11.568;2022-07-24T11:01:27;1.13;;;1.13;;
6249;SDS011;3158;52.148;11.568;2022-07-24T11:06:41;1.40;;;1.30;;
6249;SDS011;3158;52.148;11.568;2022-07-24T11:12:02;1.23;;;1.23;;
6249;SDS011;3158;52.148;11.568;2022-07-24T11:22:36;2.28;;;1.58;;
6249;SDS011;3158;52.148;11.568;2022-07-24T11:27:41;1.40;;;1.40;;
6249;SDS011;3158;52.148;11.568;2022-07-24T11:32:43;1.50;;;1.50;;
6249;SDS011;3158;52.148;11.568;2022-07-24T11:37:44;2.22;;;2.05;;
6249;SDS011;3158;52.148;11.568;2022-07-24T11:42:46;1.20;;;1.20;;
6249;SDS011;3158;52.148;11.568;2022-07-24T11:47:54;1.27;;;1.27;;
6249;SDS011;3158;52.148;11.568;2022-07-24T11:52:55;1.42;;;1.33;;
6249;SDS011;3158;52.148;11.568;2022-07-24T11:57:57;1.17;;;1.17;;
6249;SDS011;3158;52.148;11.568;2022-07-24T12:02:59;1.10;;;1.10;;
6249;SDS011;3158;52.148;11.568;2022-07-24T12:08:04;1.20;;;1.20;;
6249;SDS011;3158;52.148;11.568;2022-07-24T12:13:15;1.50;;;1.40;;
6249;SDS011;3158;52.148;11.568;2022-07-24T12:18:17;0.98;;;0.98;;
6249;SDS011;3158;52.148;11.568;2022-07-24T12:23:18;1.20;;;1.20;;
6249;SDS011;3158;52.148;11.568;2022-07-24T12:28:19;2.15;;;1.20;;
6249;SDS011;3158;52.148;11.568;2022-07-24T12:33:21;2.50;;;0.80;;
6249;SDS011;3158;52.148;11.568;2022-07-24T12:38:27;0.90;;;0.90;;
6249;SDS011;3158;52.148;11.568;2022-07-24T12:43:28;0.98;;;0.98;;
6249;SDS011;3158;52.148;11.568;2022-07-24T12:48:29;1.48;;;1.10;;
6249;SDS011;3158;52.148;11.568;2022-07-24T12:53:32;1.10;;;1.10;;
6249;SDS011;3158;52.148;11.568;2022-07-24T12:58:54;1.10;;;1.10;;
6249;SDS011;3158;52.148;11.568;2022-07-24T13:03:57;0.95;;;0.95;;
6249;SDS011;3158;52.148;11.568;2022-07-24T13:08:58;0.80;;;0.80;;
6249;SDS011;3158;52.148;11.568;2022-07-24T13:13:59;0.77;;;0.77;;
6249;SDS011;3158;52.148;11.568;2022-07-24T13:19:01;2.97;;;1.38;;
6249;SDS011;3158;52.148;11.568;2022-07-24T13:24:05;0.93;;;0.93;;
6249;SDS011;3158;52.148;11.568;2022-07-24T13:29:07;1.25;;;0.82;;
6249;SDS011;3158;52.148;11.568;2022-07-24T13:34:09;0.80;;;0.80;;
6249;SDS011;3158;52.148;11.568;2022-07-24T13:39:10;1.10;;;0.90;;
6249;SDS011;3158;52.148;11.568;2022-07-24T13:44:11;0.88;;;0.88;;
6249;SDS011;3158;52.148;11.568;2022-07-24T13:49:14;0.80;;;0.80;;
6249;SDS011;3158;52.148;11.568;2022-07-24T13:54:15;2.60;;;0.98;;
6249;SDS011;3158;52.148;11.568;2022-07-24T13:59:17;0.80;;;0.80;;
6249;SDS011;3158;52.148;11.568;2022-07-24T14:04:18;2.60;;;0.95;;
6249;SDS011;3158;52.148;11.568;2022-07-24T14:09:19;1.25;;;0.82;;
6249;SDS011;3158;52.148;11.568;2022-07-24T14:14:20;3.67;;;0.70;;
6249;SDS011;3158;52.148;11.568;2022-07-24T14:19:21;3.08;;;0.88;;
6249;SDS011;3158;52.148;11.568;2022-07-24T14:24:22;1.40;;;0.70;;
6249;SDS011;3158;52.148;11.568;2022-07-24T14:29:23;0.80;;;0.80;;
6249;SDS011;3158;52.148;11.568;2022-07-24T14:34:24;0.70;;;0.70;;
6249;SDS011;3158;52.148;11.568;2022-07-24T14:39:26;0.70;;;0.70;;
6249;SDS011;3158;52.148;11.568;2022-07-24T14:44:30;1.80;;;0.73;;
6249;SDS011;3158;52.148;11.568;2022-07-24T14:49:31;1.00;;;1.00;;
6249;SDS011;3158;52.148;11.568;2022-07-24T14:54:33;0.93;;;0.93;;
6249;SDS011;3158;52.148;11.568;2022-07-24T14:59:34;0.70;;;0.70;;
6249;SDS011;3158;52.148;11.568;2022-07-24T15:04:35;1.25;;;0.80;;
6249;SDS011;3158;52.148;11.568;2022-07-24T15:09:36;0.93;;;0.90;;
6249;SDS011;3158;52.148;11.568;2022-07-24T15:14:37;1.17;;;1.13;;
6249;SDS011;3158;52.148;11.568;2022-07-24T15:19:39;1.85;;;0.70;;
6249;SDS011;3158;52.148;11.568;2022-07-24T15:24:42;1.23;;;1.20;;
6249;SDS011;3158;52.148;11.568;2022-07-24T15:29:43;0.80;;;0.80;;
6249;SDS011;3158;52.148;11.568;2022-07-24T15:34:44;3.20;;;2.08;;
6249;SDS011;3158;52.148;11.568;2022-07-24T15:39:45;0.90;;;0.90;;
6249;SDS011;3158;52.148;11.568;2022-07-24T15:44:46;0.80;;;0.80;;
6249;SDS011;3158;52.148;11.568;2022-07-24T15:49:47;1.00;;;1.00;;
6249;SDS011;3158;52.148;11.568;2022-07-24T15:54:48;2.83;;;0.90;;
6249;SDS011;3158;52.148;11.568;2022-07-24T15:59:50;0.90;;;0.90;;
6249;SDS011;3158;52.148;11.568;2022-07-24T16:04:51;0.90;;;0.90;;
6249;SDS011;3158;52.148;11.568;2022-07-24T16:09:52;1.55;;;0.82;;
6249;SDS011;3158;52.148;11.568;2022-07-24T16:14:53;1.15;;;0.90;;
6249;SDS011;3158;52.148;11.568;2022-07-24T16:19:54;0.93;;;0.93;;
6249;SDS011;3158;52.148;11.568;2022-07-24T16:24:55;1.27;;;1.27;;
6249;SDS011;3158;52.148;11.568;2022-07-24T16:29:56;0.82;;;0.82;;
6249;SDS011;3158;52.148;11.568;2022-07-24T16:34:58;1.73;;;0.70;;
6249;SDS011;3158;52.148;11.568;2022-07-24T16:39:59;3.15;;;1.13;;
6249;SDS011;3158;52.148;11.568;2022-07-24T16:45:00;0.77;;;0.77;;
6249;SDS011;3158;52.148;11.568;2022-07-24T16:50:01;1.65;;;1.60;;
6249;SDS011;3158;52.148;11.568;2022-07-24T16:55:03;1.23;;;1.20;;
6249;SDS011;3158;52.148;11.568;2022-07-24T17:00:05;2.05;;;1.70;;
6249;SDS011;3158;52.148;11.568;2022-07-24T17:05:09;2.45;;;1.85;;
6249;SDS011;3158;52.148;11.568;2022-07-24T17:10:10;2.35;;;1.42;;
6249;SDS011;3158;52.148;11.568;2022-07-24T17:15:11;1.10;;;1.10;;
6249;SDS011;3158;52.148;11.568;2022-07-24T17:20:12;1.45;;;1.30;;
6249;SDS011;3158;52.148;11.568;2022-07-24T17:25:13;1.17;;;1.08;;
6249;SDS011;3158;52.148;11.568;2022-07-24T17:30:14;2.55;;;1.20;;
6249;SDS011;3158;52.148;11.568;2022-07-24T17:35:16;0.95;;;0.88;;
6249;SDS011;3158;52.148;11.568;2022-07-24T17:40:17;0.90;;;0.90;;
6249;SDS011;3158;52.148;11.568;2022-07-24T17:45:18;1.00;;;1.00;;
6249;SDS011;3158;52.148;11.568;2022-07-24T17:50:20;3.05;;;1.13;;
6249;SDS011;3158;52.148;11.568;2022-07-24T17:55:22;3.83;;;1.23;;
6249;SDS011;3158;52.148;11.568;2022-07-24T18:00:23;2.70;;;1.23;;
6249;SDS011;3158;52.148;11.568;2022-07-24T18:05:24;1.20;;;1.00;;
6249;SDS011;3158;52.148;11.568;2022-07-24T18:10:25;1.00;;;1.00;;
6249;SDS011;3158;52.148;11.568;2022-07-24T18:15:26;0.80;;;0.80;;
6249;SDS011;3158;52.148;11.568;2022-07-24T18:20:27;1.35;;;1.00;;
6249;SDS011;3158;52.148;11.568;2022-07-24T18:25:28;1.00;;;0.98;;
6249;SDS011;3158;52.148;11.568;2022-07-24T18:30:30;0.90;;;0.90;;
6249;SDS011;3158;52.148;11.568;2022-07-24T18:35:31;0.88;;;0.85;;
6249;SDS011;3158;52.148;11.568;2022-07-24T18:40:32;2.22;;;0.82;;
6249;SDS011;3158;52.148;11.568;2022-07-24T18:45:33;0.93;;;0.93;;
6249;SDS011;3158;52.148;11.568;2022-07-24T18:50:34;1.15;;;0.75;;
6249;SDS011;3158;52.148;11.568;2022-07-24T18:55:35;2.38;;;1.00;;
6249;SDS011;3158;52.148;11.568;2022-07-24T19:00:36;1.40;;;1.23;;
6249;SDS011;3158;52.148;11.568;2022-07-24T19:05:37;4.78;;;1.25;;
6249;SDS011;3158;52.148;11.568;2022-07-24T19:10:39;2.25;;;1.17;;
6249;SDS011;3158;52.148;11.568;2022-07-24T19:15:40;1.52;;;1.08;;
6249;SDS011;3158;52.148;11.568;2022-07-24T19:20:41;1.98;;;1.10;;
6249;SDS011;3158;52.148;11.568;2022-07-24T19:25:42;1.15;;;1.15;;
6249;SDS011;3158;52.148;11.568;2022-07-24T19:30:43;2.70;;;1.17;;
6249;SDS011;3158;52.148;11.568;2022-07-24T19:35:44;2.47;;;1.67;;
6249;SDS011;3158;52.148;11.568;2022-07-24T19:40:46;1.25;;;1.25;;
6249;SDS011;3158;52.148;11.568;2022-07-24T19:45:47;1.25;;;1.25;;
6249;SDS011;3158;52.148;11.568;2022-07-24T19:50:48;2.00;;;1.20;;
6249;SDS011;3158;52.148;11.568;2022-07-24T19:55:49;5.25;;;1.20;;
6249;SDS011;3158;52.148;11.568;2022-07-24T20:00:50;1.30;;;1.30;;
6249;SDS011;3158;52.148;11.568;2022-07-24T20:05:51;0.98;;;0.98;;
6249;SDS011;3158;52.148;11.568;2022-07-24T20:10:52;1.35;;;1.27;;
6249;SDS011;3158;52.148;11.568;2022-07-24T20:15:55;2.17;;;1.58;;
6249;SDS011;3158;52.148;11.568;2022-07-24T20:20:56;1.08;;;1.00;;
6249;SDS011;3158;52.148;11.568;2022-07-24T20:25:57;1.52;;;1.50;;
6249;SDS011;3158;52.148;11.568;2022-07-24T20:30:58;1.73;;;0.95;;
6249;SDS011;3158;52.148;11.568;2022-07-24T20:35:59;1.08;;;1.05;;
6249;SDS011;3158;52.148;11.568;2022-07-24T20:41:01;1.15;;;1.15;;
6249;SDS011;3158;52.148;11.568;2022-07-24T20:46:02;1.00;;;1.00;;
6249;SDS011;3158;52.148;11.568;2022-07-24T20:51:03;1.08;;;1.00;;
6249;SDS011;3158;52.148;11.568;2022-07-24T20:56:04;1.80;;;1.00;;
6249;SDS011;3158;52.148;11.568;2022-07-24T21:01:06;1.33;;;1.33;;
6249;SDS011;3158;52.148;11.568;2022-07-24T21:06:07;2.10;;;1.30;;
6249;SDS011;3158;52.148;11.568;2022-07-24T21:11:08;1.15;;;1.10;;
6249;SDS011;3158;52.148;11.568;2022-07-24T21:16:09;1.60;;;1.00;;
6249;SDS011;3158;52.148;11.568;2022-07-24T21:21:10;1.77;;;1.77;;
6249;SDS011;3158;52.148;11.568;2022-07-24T21:26:12;1.73;;;1.27;;
6249;SDS011;3158;52.148;11.568;2022-07-24T21:31:13;2.42;;;1.40;;
6249;SDS011;3158;52.148;11.568;2022-07-24T21:36:15;1.98;;;1.33;;
6249;SDS011;3158;52.148;11.568;2022-07-24T21:41:16;2.50;;;1.67;;
6249;SDS011;3158;52.148;11.568;2022-07-24T21:46:18;1.23;;;1.23;;
6249;SDS011;3158;52.148;11.568;2022-07-24T21:51:19;1.55;;;1.45;;
6249;SDS011;3158;52.148;11.568;2022-07-24T21:56:20;1.20;;;1.20;;
6249;SDS011;3158;52.148;11.568;2022-07-24T22:01:21;1.30;;;1.20;;
6249;SDS011;3158;52.148;11.568;2022-07-24T22:06:22;1.65;;;1.10;;
6249;SDS011;3158;52.148;11.568;2022-07-24T22:11:23;2.33;;;1.40;;
6249;SDS011;3158;52.148;11.568;2022-07-24T22:16:24;1.83;;;1.15;;
6249;SDS011;3158;52.148;11.568;2022-07-24T22:21:25;3.00;;;1.38;;
6249;SDS011;3158;52.148;11.568;2022-07-24T22:26:26;0.90;;;0.85;;
6249;SDS011;3158;52.148;11.568;2022-07-24T22:31:28;1.10;;;1.10;;
6249;SDS011;3158;52.148;11.568;2022-07-24T22:36:32;1.20;;;1.20;;
6249;SDS011;3158;52.148;11.568;2022-07-24T22:41:33;1.65;;;1.55;;
6249;SDS011;3158;52.148;11.568;2022-07-24T22:46:34;2.15;;;1.30;;
6249;SDS011;3158;52.148;11.568;2022-07-24T22:51:36;1.40;;;1.30;;
6249;SDS011;3158;52.148;11.568;2022-07-24T22:56:37;1.48;;;1.20;;
6249;SDS011;3158;52.148;11.568;2022-07-24T23:01:38;2.83;;;1.15;;
6249;SDS011;3158;52.148;11.568;2022-07-24T23:06:39;1.23;;;1.23;;
6249;SDS011;3158;52.148;11.568;2022-07-24T23:11:40;1.38;;;1.20;;
6249;SDS011;3158;52.148;11.568;2022-07-24T23:16:41;1.55;;;1.35;;
6249;SDS011;3158;52.148;11.568;2022-07-24T23:21:43;1.60;;;1.55;;
6249;SDS011;3158;52.148;11.568;2022-07-24T23:26:44;1.55;;;1.50;;
6249;SDS011;3158;52.148;11.568;2022-07-24T23:31:49;1.63;;;1.52;;
6249;SDS011;3158;52.148;11.568;2022-07-24T23:36:50;1.70;;;1.35;;
6249;SDS011;3158;52.148;11.568;2022-07-24T23:41:51;1.38;;;1.38;;
6249;SDS011;3158;52.148;11.568;2022-07-24T23:46:52;1.00;;;1.00;;
6249;SDS011;3158;52.148;11.568;2022-07-24T23:51:53;1.40;;;1.40;;
6249;SDS011;3158;52.148;11.568;2022-07-24T23:56:54;1.25;;;1.25;;
